sensor_id;sensor_type;location;lat;lon;timestamp;P1;durP1;ratioP1;P2;durP2;ratioP2
12222;SDS011;6174;49.058;8.524;2023-11-19T07:00:36;0.40;;;0.40;;
12222;SDS011;6174;49.058;8.524;2023-11-19T07:03:03;0.40;;;0.40;;
12222;SDS011;6174;49.058;8.524;2023-11-19T07:05:31;0.90;;;0.80;;
12222;SDS011;6174;49.058;8.524;2023-11-19T07:07:58;1.67;;;1.07;;
12222;SDS011;6174;49.058;8.524;2023-11-19T07:10:26;0.87;;;0.80;;
12222;SDS011;6174;49.058;8.524;2023-11-19T07:12:55;0.63;;;0.63;;
12222;SDS011;6174;49.058;8.524;2023-11-19T07:15:22;0.93;;;0.70;;
12222;SDS011;6174;49.058;8.524;2023-11-19T07:17:50;0.80;;;0.67;;
12222;SDS011;6174;49.058;8.524;2023-11-19T07:20:19;0.73;;;0.73;;
12222;SDS011;6174;49.058;8.524;2023-11-19T07:22:46;0.87;;;0.87;;
12222;SDS011;6174;49.058;8.524;2023-11-19T07:25:13;0.87;;;0.87;;
12222;SDS011;6174;49.058;8.524;2023-11-19T07:27:40;0.63;;;0.53;;
12222;SDS011;6174;49.058;8.524;2023-11-19T07:30:08;1.17;;;0.73;;
12222;SDS011;6174;49.058;8.524;2023-11-19T07:32:35;0.87;;;0.87;;
12222;SDS011;6174;49.058;8.524;2023-11-19T07:35:05;0.60;;;0.60;;
12222;SDS011;6174;49.058;8.524;2023-11-19T07:37:36;0.50;;;0.50;;
12222;SDS011;6174;49.058;8.524;2023-11-19T07:40:44;0.80;;;0.50;;
12222;SDS011;6174;49.058;8.524;2023-11-19T07:43:22;0.60;;;0.40;;
12222;SDS011;6174;49.058;8.524;2023-11-19T07:45:51;2.63;;;0.53;;
12222;SDS011;6174;49.058;8.524;2023-11-19T07:48:20;0.50;;;0.50;;
12222;SDS011;6174;49.058;8.524;2023-11-19T07:50:52;2.10;;;0.63;;
12222;SDS011;6174;49.058;8.524;2023-11-19T07:53:19;0.50;;;0.50;;
12222;SDS011;6174;49.058;8.524;2023-11-19T07:55:50;1.27;;;0.50;;
12222;SDS011;6174;49.058;8.524;2023-11-19T07:58:16;1.47;;;0.70;;
12222;SDS011;6174;49.058;8.524;2023-11-19T08:00:43;0.50;;;0.50;;
12222;SDS011;6174;49.058;8.524;2023-11-19T08:03:10;0.60;;;0.50;;
12222;SDS011;6174;49.058;8.524;2023-11-19T08:05:37;0.50;;;0.50;;
12222;SDS011;6174;49.058;8.524;2023-11-19T08:08:05;0.60;;;0.60;;
12222;SDS011;6174;49.058;8.524;2023-11-19T08:10:34;0.40;;;0.40;;
12222;SDS011;6174;49.058;8.524;2023-11-19T08:13:02;0.57;;;0.57;;
12222;SDS011;6174;49.058;8.524;2023-11-19T08:15:32;0.50;;;0.50;;
12222;SDS011;6174;49.058;8.524;2023-11-19T08:21:23;0.93;;;0.73;;
12222;SDS011;6174;49.058;8.524;2023-11-19T08:27:39;0.60;;;0.53;;
12222;SDS011;6174;49.058;8.524;2023-11-19T08:33:38;0.87;;;0.53;;
12222;SDS011;6174;49.058;8.524;2023-11-19T08:36:16;0.40;;;0.40;;
12222;SDS011;6174;49.058;8.524;2023-11-19T08:38:43;0.40;;;0.40;;
12222;SDS011;6174;49.058;8.524;2023-11-19T08:41:20;1.03;;;0.50;;
12222;SDS011;6174;49.058;8.524;2023-11-19T08:43:49;0.53;;;0.30;;
12222;SDS011;6174;49.058;8.524;2023-11-19T08:46:16;1.63;;;0.43;;
12222;SDS011;6174;49.058;8.524;2023-11-19T08:48:43;1.33;;;0.57;;
12222;SDS011;6174;49.058;8.524;2023-11-19T08:51:11;0.70;;;0.70;;
12222;SDS011;6174;49.058;8.524;2023-11-19T08:53:38;1.23;;;1.13;;
12222;SDS011;6174;49.058;8.524;2023-11-19T08:56:05;1.20;;;0.90;;
12222;SDS011;6174;49.058;8.524;2023-11-19T08:58:35;0.83;;;0.70;;
12222;SDS011;6174;49.058;8.524;2023-11-19T09:01:05;1.73;;;0.70;;
12222;SDS011;6174;49.058;8.524;2023-11-19T09:03:32;0.60;;;0.60;;
12222;SDS011;6174;49.058;8.524;2023-11-19T09:05:59;1.40;;;0.70;;
12222;SDS011;6174;49.058;8.524;2023-11-19T09:08:26;0.60;;;0.60;;
12222;SDS011;6174;49.058;8.524;2023-11-19T09:10:53;0.73;;;0.73;;
12222;SDS011;6174;49.058;8.524;2023-11-19T09:13:23;1.47;;;0.90;;
12222;SDS011;6174;49.058;8.524;2023-11-19T09:15:50;1.53;;;1.17;;
12222;SDS011;6174;49.058;8.524;2023-11-19T09:18:18;1.33;;;0.40;;
12222;SDS011;6174;49.058;8.524;2023-11-19T09:20:46;0.80;;;0.80;;
12222;SDS011;6174;49.058;8.524;2023-11-19T09:23:13;0.70;;;0.60;;
12222;SDS011;6174;49.058;8.524;2023-11-19T09:25:40;0.67;;;0.60;;
12222;SDS011;6174;49.058;8.524;2023-11-19T09:28:07;1.17;;;0.60;;
12222;SDS011;6174;49.058;8.524;2023-11-19T09:30:34;0.80;;;0.43;;
12222;SDS011;6174;49.058;8.524;2023-11-19T09:33:01;0.70;;;0.70;;
12222;SDS011;6174;49.058;8.524;2023-11-19T09:35:29;0.93;;;0.93;;
12222;SDS011;6174;49.058;8.524;2023-11-19T09:37:56;2.93;;;2.47;;
12222;SDS011;6174;49.058;8.524;2023-11-19T09:40:27;1.20;;;1.10;;
12222;SDS011;6174;49.058;8.524;2023-11-19T09:42:56;1.23;;;1.10;;
12222;SDS011;6174;49.058;8.524;2023-11-19T09:45:24;1.77;;;1.67;;
12222;SDS011;6174;49.058;8.524;2023-11-19T09:47:53;2.43;;;0.77;;
12222;SDS011;6174;49.058;8.524;2023-11-19T09:50:23;0.93;;;0.87;;
12222;SDS011;6174;49.058;8.524;2023-11-19T09:52:51;0.60;;;0.60;;
12222;SDS011;6174;49.058;8.524;2023-11-19T09:55:18;1.20;;;0.60;;
12222;SDS011;6174;49.058;8.524;2023-11-19T09:57:45;1.60;;;1.10;;
12222;SDS011;6174;49.058;8.524;2023-11-19T10:00:14;1.30;;;1.20;;
12222;SDS011;6174;49.058;8.524;2023-11-19T10:02:44;1.03;;;0.70;;
12222;SDS011;6174;49.058;8.524;2023-11-19T10:05:14;1.30;;;1.20;;
12222;SDS011;6174;49.058;8.524;2023-11-19T10:07:41;0.80;;;0.80;;
12222;SDS011;6174;49.058;8.524;2023-11-19T10:10:09;0.80;;;0.80;;
12222;SDS011;6174;49.058;8.524;2023-11-19T10:12:39;1.50;;;1.40;;
12222;SDS011;6174;49.058;8.524;2023-11-19T10:15:06;2.30;;;1.50;;
12222;SDS011;6174;49.058;8.524;2023-11-19T10:17:43;1.27;;;1.10;;
12222;SDS011;6174;49.058;8.524;2023-11-19T10:20:10;1.03;;;1.00;;
12222;SDS011;6174;49.058;8.524;2023-11-19T10:22:37;0.90;;;0.90;;
12222;SDS011;6174;49.058;8.524;2023-11-19T10:25:08;2.20;;;0.93;;
12222;SDS011;6174;49.058;8.524;2023-11-19T10:27:50;0.70;;;0.70;;
12222;SDS011;6174;49.058;8.524;2023-11-19T10:30:17;0.50;;;0.50;;
12222;SDS011;6174;49.058;8.524;2023-11-19T10:35:31;0.80;;;0.80;;
12222;SDS011;6174;49.058;8.524;2023-11-19T10:37:59;0.97;;;0.97;;
12222;SDS011;6174;49.058;8.524;2023-11-19T10:40:40;0.90;;;0.70;;
12222;SDS011;6174;49.058;8.524;2023-11-19T10:43:07;0.80;;;0.80;;
12222;SDS011;6174;49.058;8.524;2023-11-19T10:45:34;1.50;;;0.73;;
12222;SDS011;6174;49.058;8.524;2023-11-19T10:48:02;0.70;;;0.70;;
12222;SDS011;6174;49.058;8.524;2023-11-19T10:50:31;1.83;;;1.10;;
12222;SDS011;6174;49.058;8.524;2023-11-19T10:52:59;1.53;;;0.87;;
12222;SDS011;6174;49.058;8.524;2023-11-19T10:55:27;0.50;;;0.50;;
12222;SDS011;6174;49.058;8.524;2023-11-19T10:57:58;1.27;;;0.70;;
12222;SDS011;6174;49.058;8.524;2023-11-19T11:00:26;0.77;;;0.70;;
12222;SDS011;6174;49.058;8.524;2023-11-19T11:02:56;0.90;;;0.90;;
12222;SDS011;6174;49.058;8.524;2023-11-19T11:05:27;1.87;;;1.03;;
12222;SDS011;6174;49.058;8.524;2023-11-19T11:07:56;1.20;;;0.90;;
12222;SDS011;6174;49.058;8.524;2023-11-19T11:10:25;2.70;;;1.00;;
12222;SDS011;6174;49.058;8.524;2023-11-19T11:12:55;2.90;;;1.10;;
12222;SDS011;6174;49.058;8.524;2023-11-19T11:15:29;1.70;;;0.87;;
12222;SDS011;6174;49.058;8.524;2023-11-19T11:18:03;0.90;;;0.90;;
12222;SDS011;6174;49.058;8.524;2023-11-19T11:20:34;1.30;;;0.80;;
12222;SDS011;6174;49.058;8.524;2023-11-19T11:26:13;1.27;;;1.17;;
12222;SDS011;6174;49.058;8.524;2023-11-19T11:28:56;1.00;;;1.00;;
12222;SDS011;6174;49.058;8.524;2023-11-19T11:31:29;1.63;;;1.20;;
12222;SDS011;6174;49.058;8.524;2023-11-19T11:34:07;1.50;;;1.10;;
12222;SDS011;6174;49.058;8.524;2023-11-19T11:36:49;1.00;;;0.90;;
12222;SDS011;6174;49.058;8.524;2023-11-19T11:39:21;1.83;;;1.60;;
12222;SDS011;6174;49.058;8.524;2023-11-19T11:45:00;2.67;;;1.30;;
12222;SDS011;6174;49.058;8.524;2023-11-19T11:50:50;1.73;;;1.30;;
12222;SDS011;6174;49.058;8.524;2023-11-19T11:53:22;1.47;;;1.20;;
12222;SDS011;6174;49.058;8.524;2023-11-19T11:55:53;1.70;;;1.20;;
12222;SDS011;6174;49.058;8.524;2023-11-19T11:58:25;1.63;;;1.00;;
12222;SDS011;6174;49.058;8.524;2023-11-19T12:00:57;2.03;;;1.30;;
12222;SDS011;6174;49.058;8.524;2023-11-19T12:03:28;1.30;;;0.90;;
12222;SDS011;6174;49.058;8.524;2023-11-19T12:05:55;1.53;;;1.30;;
12222;SDS011;6174;49.058;8.524;2023-11-19T12:08:24;4.03;;;1.37;;
12222;SDS011;6174;49.058;8.524;2023-11-19T12:10:53;1.33;;;1.00;;
12222;SDS011;6174;49.058;8.524;2023-11-19T12:16:24;2.23;;;0.90;;
12222;SDS011;6174;49.058;8.524;2023-11-19T12:18:53;1.70;;;1.10;;
12222;SDS011;6174;49.058;8.524;2023-11-19T12:21:29;0.80;;;0.73;;
12222;SDS011;6174;49.058;8.524;2023-11-19T12:23:58;0.90;;;0.90;;
12222;SDS011;6174;49.058;8.524;2023-11-19T12:26:36;1.60;;;0.97;;
12222;SDS011;6174;49.058;8.524;2023-11-19T12:29:06;1.83;;;1.10;;
12222;SDS011;6174;49.058;8.524;2023-11-19T12:31:34;1.13;;;0.87;;
12222;SDS011;6174;49.058;8.524;2023-11-19T12:34:07;2.13;;;1.10;;
12222;SDS011;6174;49.058;8.524;2023-11-19T12:36:37;1.83;;;1.00;;
12222;SDS011;6174;49.058;8.524;2023-11-19T12:39:05;0.97;;;0.77;;
12222;SDS011;6174;49.058;8.524;2023-11-19T12:41:32;1.67;;;0.90;;
12222;SDS011;6174;49.058;8.524;2023-11-19T12:44:16;1.77;;;1.00;;
12222;SDS011;6174;49.058;8.524;2023-11-19T12:46:44;1.10;;;1.00;;
12222;SDS011;6174;49.058;8.524;2023-11-19T12:49:11;1.20;;;0.87;;
12222;SDS011;6174;49.058;8.524;2023-11-19T12:51:37;2.70;;;1.10;;
12222;SDS011;6174;49.058;8.524;2023-11-19T12:54:04;1.40;;;0.93;;
12222;SDS011;6174;49.058;8.524;2023-11-19T12:56:31;1.43;;;1.10;;
12222;SDS011;6174;49.058;8.524;2023-11-19T12:59:01;1.83;;;1.00;;
12222;SDS011;6174;49.058;8.524;2023-11-19T13:01:36;1.80;;;0.90;;
12222;SDS011;6174;49.058;8.524;2023-11-19T13:04:17;1.00;;;1.00;;
12222;SDS011;6174;49.058;8.524;2023-11-19T13:06:44;1.13;;;1.03;;
12222;SDS011;6174;49.058;8.524;2023-11-19T13:09:21;1.83;;;1.10;;
12222;SDS011;6174;49.058;8.524;2023-11-19T13:11:48;1.37;;;1.20;;
12222;SDS011;6174;49.058;8.524;2023-11-19T13:14:15;1.87;;;1.00;;
12222;SDS011;6174;49.058;8.524;2023-11-19T13:16:42;1.53;;;0.77;;
12222;SDS011;6174;49.058;8.524;2023-11-19T13:19:10;2.53;;;1.13;;
12222;SDS011;6174;49.058;8.524;2023-11-19T13:21:39;3.20;;;1.20;;
12222;SDS011;6174;49.058;8.524;2023-11-19T13:24:11;1.20;;;1.00;;
12222;SDS011;6174;49.058;8.524;2023-11-19T13:26:38;1.50;;;1.00;;
12222;SDS011;6174;49.058;8.524;2023-11-19T13:29:07;0.77;;;0.77;;
12222;SDS011;6174;49.058;8.524;2023-11-19T13:31:36;2.00;;;1.00;;
12222;SDS011;6174;49.058;8.524;2023-11-19T13:34:04;1.10;;;1.00;;
12222;SDS011;6174;49.058;8.524;2023-11-19T13:36:33;1.97;;;1.00;;
12222;SDS011;6174;49.058;8.524;2023-11-19T13:39:01;2.43;;;1.00;;
12222;SDS011;6174;49.058;8.524;2023-11-19T13:41:29;1.10;;;0.90;;
12222;SDS011;6174;49.058;8.524;2023-11-19T13:44:01;1.83;;;0.70;;
12222;SDS011;6174;49.058;8.524;2023-11-19T13:46:34;1.07;;;0.97;;
12222;SDS011;6174;49.058;8.524;2023-11-19T13:49:01;2.07;;;1.13;;
12222;SDS011;6174;49.058;8.524;2023-11-19T13:51:28;0.97;;;0.70;;
12222;SDS011;6174;49.058;8.524;2023-11-19T13:54:01;2.07;;;1.00;;
12222;SDS011;6174;49.058;8.524;2023-11-19T13:56:40;1.13;;;0.80;;
12222;SDS011;6174;49.058;8.524;2023-11-19T13:59:11;0.93;;;0.60;;
12222;SDS011;6174;49.058;8.524;2023-11-19T14:01:43;1.10;;;1.00;;
12222;SDS011;6174;49.058;8.524;2023-11-19T14:04:12;3.00;;;1.20;;
12222;SDS011;6174;49.058;8.524;2023-11-19T14:06:39;1.80;;;1.07;;
12222;SDS011;6174;49.058;8.524;2023-11-19T14:09:09;1.60;;;0.90;;
12222;SDS011;6174;49.058;8.524;2023-11-19T14:11:38;1.43;;;0.93;;
12222;SDS011;6174;49.058;8.524;2023-11-19T14:14:18;0.83;;;0.83;;
12222;SDS011;6174;49.058;8.524;2023-11-19T14:16:59;1.47;;;0.97;;
12222;SDS011;6174;49.058;8.524;2023-11-19T14:19:30;1.60;;;0.93;;
12222;SDS011;6174;49.058;8.524;2023-11-19T14:21:56;1.93;;;1.20;;
12222;SDS011;6174;49.058;8.524;2023-11-19T14:24:26;2.43;;;0.90;;
12222;SDS011;6174;49.058;8.524;2023-11-19T14:27:02;1.77;;;1.13;;
12222;SDS011;6174;49.058;8.524;2023-11-19T14:29:29;1.47;;;1.03;;
12222;SDS011;6174;49.058;8.524;2023-11-19T14:31:56;2.30;;;0.80;;
12222;SDS011;6174;49.058;8.524;2023-11-19T14:34:24;3.90;;;1.10;;
12222;SDS011;6174;49.058;8.524;2023-11-19T14:36:52;1.73;;;1.00;;
12222;SDS011;6174;49.058;8.524;2023-11-19T14:39:19;1.53;;;1.00;;
12222;SDS011;6174;49.058;8.524;2023-11-19T14:41:49;1.50;;;1.10;;
12222;SDS011;6174;49.058;8.524;2023-11-19T14:44:17;1.97;;;0.90;;
12222;SDS011;6174;49.058;8.524;2023-11-19T14:46:45;1.63;;;1.10;;
12222;SDS011;6174;49.058;8.524;2023-11-19T14:49:14;1.30;;;1.03;;
12222;SDS011;6174;49.058;8.524;2023-11-19T14:51:41;1.30;;;1.00;;
12222;SDS011;6174;49.058;8.524;2023-11-19T14:54:10;3.47;;;1.23;;
12222;SDS011;6174;49.058;8.524;2023-11-19T14:56:45;1.53;;;1.10;;
12222;SDS011;6174;49.058;8.524;2023-11-19T14:59:16;1.20;;;0.90;;
12222;SDS011;6174;49.058;8.524;2023-11-19T15:02:16;1.27;;;1.00;;
12222;SDS011;6174;49.058;8.524;2023-11-19T15:04:41;1.30;;;0.93;;
12222;SDS011;6174;49.058;8.524;2023-11-19T15:07:19;1.37;;;1.13;;
12222;SDS011;6174;49.058;8.524;2023-11-19T15:09:48;1.90;;;1.10;;
12222;SDS011;6174;49.058;8.524;2023-11-19T15:12:22;1.00;;;0.90;;
12222;SDS011;6174;49.058;8.524;2023-11-19T15:14:54;1.60;;;0.90;;
12222;SDS011;6174;49.058;8.524;2023-11-19T15:17:20;2.10;;;1.10;;
12222;SDS011;6174;49.058;8.524;2023-11-19T15:19:53;2.33;;;1.03;;
12222;SDS011;6174;49.058;8.524;2023-11-19T15:22:20;1.43;;;0.77;;
12222;SDS011;6174;49.058;8.524;2023-11-19T15:24:54;1.17;;;1.07;;
12222;SDS011;6174;49.058;8.524;2023-11-19T15:27:29;2.20;;;1.17;;
12222;SDS011;6174;49.058;8.524;2023-11-19T15:29:56;1.50;;;1.00;;
12222;SDS011;6174;49.058;8.524;2023-11-19T15:32:27;1.80;;;0.93;;
12222;SDS011;6174;49.058;8.524;2023-11-19T15:34:56;1.10;;;0.90;;
12222;SDS011;6174;49.058;8.524;2023-11-19T15:37:25;1.40;;;0.80;;
12222;SDS011;6174;49.058;8.524;2023-11-19T15:39:52;2.37;;;1.10;;
12222;SDS011;6174;49.058;8.524;2023-11-19T15:42:18;1.90;;;0.90;;
12222;SDS011;6174;49.058;8.524;2023-11-19T15:44:49;2.27;;;1.00;;
12222;SDS011;6174;49.058;8.524;2023-11-19T15:47:16;1.37;;;1.10;;
12222;SDS011;6174;49.058;8.524;2023-11-19T15:49:46;1.30;;;1.03;;
12222;SDS011;6174;49.058;8.524;2023-11-19T15:52:15;0.80;;;0.70;;
12222;SDS011;6174;49.058;8.524;2023-11-19T15:54:42;1.30;;;1.20;;
12222;SDS011;6174;49.058;8.524;2023-11-19T15:57:12;0.90;;;0.70;;
12222;SDS011;6174;49.058;8.524;2023-11-19T15:59:39;1.13;;;1.03;;
12222;SDS011;6174;49.058;8.524;2023-11-19T16:02:07;2.10;;;1.10;;
12222;SDS011;6174;49.058;8.524;2023-11-19T16:04:36;1.47;;;1.03;;
12222;SDS011;6174;49.058;8.524;2023-11-19T16:07:13;2.90;;;1.00;;
12222;SDS011;6174;49.058;8.524;2023-11-19T16:09:40;1.20;;;1.07;;
12222;SDS011;6174;49.058;8.524;2023-11-19T16:12:09;1.73;;;1.00;;
12222;SDS011;6174;49.058;8.524;2023-11-19T16:14:42;2.20;;;1.60;;
12222;SDS011;6174;49.058;8.524;2023-11-19T16:17:10;2.47;;;1.30;;
12222;SDS011;6174;49.058;8.524;2023-11-19T16:19:36;2.97;;;1.13;;
12222;SDS011;6174;49.058;8.524;2023-11-19T16:22:05;1.07;;;0.97;;
12222;SDS011;6174;49.058;8.524;2023-11-19T16:24:36;1.00;;;0.90;;
12222;SDS011;6174;49.058;8.524;2023-11-19T16:27:03;1.40;;;1.03;;
12222;SDS011;6174;49.058;8.524;2023-11-19T16:29:30;2.77;;;1.07;;
12222;SDS011;6174;49.058;8.524;2023-11-19T16:31:56;3.47;;;1.80;;
12222;SDS011;6174;49.058;8.524;2023-11-19T16:34:24;1.50;;;1.40;;
12222;SDS011;6174;49.058;8.524;2023-11-19T16:36:53;2.23;;;1.47;;
12222;SDS011;6174;49.058;8.524;2023-11-19T16:39:20;1.67;;;1.37;;
12222;SDS011;6174;49.058;8.524;2023-11-19T16:41:47;1.87;;;1.30;;
12222;SDS011;6174;49.058;8.524;2023-11-19T16:44:16;1.63;;;0.90;;
12222;SDS011;6174;49.058;8.524;2023-11-19T16:46:43;2.17;;;1.37;;
12222;SDS011;6174;49.058;8.524;2023-11-19T16:49:10;1.67;;;1.10;;
12222;SDS011;6174;49.058;8.524;2023-11-19T16:51:40;2.90;;;1.67;;
12222;SDS011;6174;49.058;8.524;2023-11-19T16:54:11;2.00;;;1.40;;
12222;SDS011;6174;49.058;8.524;2023-11-19T16:56:38;1.57;;;1.47;;
12222;SDS011;6174;49.058;8.524;2023-11-19T16:59:08;2.50;;;1.40;;
12222;SDS011;6174;49.058;8.524;2023-11-19T17:01:34;3.55;;;1.60;;
12222;SDS011;6174;49.058;8.524;2023-11-19T17:04:02;1.97;;;1.67;;
12222;SDS011;6174;49.058;8.524;2023-11-19T17:06:29;1.60;;;1.50;;
12222;SDS011;6174;49.058;8.524;2023-11-19T17:08:57;1.37;;;1.23;;
12222;SDS011;6174;49.058;8.524;2023-11-19T17:11:24;1.63;;;1.37;;
12222;SDS011;6174;49.058;8.524;2023-11-19T17:13:51;1.20;;;1.10;;
12222;SDS011;6174;49.058;8.524;2023-11-19T17:16:18;1.13;;;1.13;;
12222;SDS011;6174;49.058;8.524;2023-11-19T17:18:45;1.30;;;1.20;;
12222;SDS011;6174;49.058;8.524;2023-11-19T17:21:15;6.57;;;5.83;;
12222;SDS011;6174;49.058;8.524;2023-11-19T17:23:44;2.80;;;1.60;;
12222;SDS011;6174;49.058;8.524;2023-11-19T17:26:13;1.40;;;1.30;;
12222;SDS011;6174;49.058;8.524;2023-11-19T17:28:39;2.90;;;1.20;;
12222;SDS011;6174;49.058;8.524;2023-11-19T17:31:06;1.80;;;1.40;;
12222;SDS011;6174;49.058;8.524;2023-11-19T17:33:33;2.50;;;1.30;;
12222;SDS011;6174;49.058;8.524;2023-11-19T17:36:00;2.20;;;1.20;;
12222;SDS011;6174;49.058;8.524;2023-11-19T17:38:27;2.30;;;1.43;;
12222;SDS011;6174;49.058;8.524;2023-11-19T17:40:54;1.90;;;1.10;;
12222;SDS011;6174;49.058;8.524;2023-11-19T17:43:23;3.00;;;1.10;;
12222;SDS011;6174;49.058;8.524;2023-11-19T17:45:52;1.30;;;1.20;;
12222;SDS011;6174;49.058;8.524;2023-11-19T17:48:21;1.40;;;1.00;;
12222;SDS011;6174;49.058;8.524;2023-11-19T17:50:48;1.57;;;1.17;;
12222;SDS011;6174;49.058;8.524;2023-11-19T17:53:15;1.47;;;1.20;;
12222;SDS011;6174;49.058;8.524;2023-11-19T17:55:42;1.43;;;1.30;;
12222;SDS011;6174;49.058;8.524;2023-11-19T17:58:09;1.63;;;1.20;;
12222;SDS011;6174;49.058;8.524;2023-11-19T18:00:37;3.37;;;1.37;;
12222;SDS011;6174;49.058;8.524;2023-11-19T18:03:04;2.43;;;1.40;;
12222;SDS011;6174;49.058;8.524;2023-11-19T18:05:31;3.93;;;2.23;;
12222;SDS011;6174;49.058;8.524;2023-11-19T18:07:58;2.73;;;1.50;;
12222;SDS011;6174;49.058;8.524;2023-11-19T18:10:25;4.07;;;2.07;;
12222;SDS011;6174;49.058;8.524;2023-11-19T18:12:53;3.77;;;2.80;;
12222;SDS011;6174;49.058;8.524;2023-11-19T18:15:20;2.77;;;1.70;;
12222;SDS011;6174;49.058;8.524;2023-11-19T18:17:52;2.70;;;1.80;;
12222;SDS011;6174;49.058;8.524;2023-11-19T18:20:18;4.57;;;3.13;;
12222;SDS011;6174;49.058;8.524;2023-11-19T18:22:45;2.83;;;1.80;;
12222;SDS011;6174;49.058;8.524;2023-11-19T18:25:13;2.63;;;1.80;;
12222;SDS011;6174;49.058;8.524;2023-11-19T18:27:42;3.23;;;1.80;;
12222;SDS011;6174;49.058;8.524;2023-11-19T18:30:09;3.57;;;1.37;;
12222;SDS011;6174;49.058;8.524;2023-11-19T18:32:38;2.97;;;1.60;;
12222;SDS011;6174;49.058;8.524;2023-11-19T18:35:08;4.63;;;1.80;;
12222;SDS011;6174;49.058;8.524;2023-11-19T18:37:36;2.90;;;1.70;;
12222;SDS011;6174;49.058;8.524;2023-11-19T18:40:04;3.43;;;1.50;;
12222;SDS011;6174;49.058;8.524;2023-11-19T18:42:34;3.73;;;1.87;;
12222;SDS011;6174;49.058;8.524;2023-11-19T18:45:01;4.43;;;1.63;;
12222;SDS011;6174;49.058;8.524;2023-11-19T18:47:29;2.33;;;1.43;;
12222;SDS011;6174;49.058;8.524;2023-11-19T18:49:58;3.00;;;1.50;;
12222;SDS011;6174;49.058;8.524;2023-11-19T18:52:26;3.27;;;1.60;;
12222;SDS011;6174;49.058;8.524;2023-11-19T18:54:53;2.57;;;1.50;;
12222;SDS011;6174;49.058;8.524;2023-11-19T18:57:22;4.40;;;1.70;;
12222;SDS011;6174;49.058;8.524;2023-11-19T18:59:49;3.50;;;1.60;;
12222;SDS011;6174;49.058;8.524;2023-11-19T19:02:18;3.47;;;1.60;;
12222;SDS011;6174;49.058;8.524;2023-11-19T19:04:45;3.73;;;2.00;;
12222;SDS011;6174;49.058;8.524;2023-11-19T19:07:12;4.33;;;1.67;;
12222;SDS011;6174;49.058;8.524;2023-11-19T19:09:41;4.73;;;2.00;;
12222;SDS011;6174;49.058;8.524;2023-11-19T19:12:10;4.20;;;1.70;;
12222;SDS011;6174;49.058;8.524;2023-11-19T19:14:37;3.33;;;1.30;;
12222;SDS011;6174;49.058;8.524;2023-11-19T19:17:04;3.37;;;1.80;;
12222;SDS011;6174;49.058;8.524;2023-11-19T19:19:33;3.17;;;1.90;;
12222;SDS011;6174;49.058;8.524;2023-11-19T19:22:00;4.90;;;2.07;;
12222;SDS011;6174;49.058;8.524;2023-11-19T19:24:26;3.67;;;1.63;;
12222;SDS011;6174;49.058;8.524;2023-11-19T19:26:54;3.77;;;1.67;;
12222;SDS011;6174;49.058;8.524;2023-11-19T19:29:22;4.57;;;2.00;;
12222;SDS011;6174;49.058;8.524;2023-11-19T19:31:49;4.17;;;1.90;;
12222;SDS011;6174;49.058;8.524;2023-11-19T19:34:16;3.53;;;2.00;;
12222;SDS011;6174;49.058;8.524;2023-11-19T19:36:44;3.83;;;1.70;;
12222;SDS011;6174;49.058;8.524;2023-11-19T19:39:11;5.67;;;3.30;;
12222;SDS011;6174;49.058;8.524;2023-11-19T19:41:40;5.90;;;2.13;;
12222;SDS011;6174;49.058;8.524;2023-11-19T19:44:08;4.13;;;2.13;;
12222;SDS011;6174;49.058;8.524;2023-11-19T19:46:36;3.93;;;3.00;;
12222;SDS011;6174;49.058;8.524;2023-11-19T19:49:03;3.80;;;2.17;;
12222;SDS011;6174;49.058;8.524;2023-11-19T19:51:33;5.07;;;3.00;;
12222;SDS011;6174;49.058;8.524;2023-11-19T19:54:00;3.40;;;1.60;;
12222;SDS011;6174;49.058;8.524;2023-11-19T19:56:27;5.57;;;3.87;;
12222;SDS011;6174;49.058;8.524;2023-11-19T19:58:54;8.07;;;2.40;;
12222;SDS011;6174;49.058;8.524;2023-11-19T20:01:23;5.97;;;4.33;;
12222;SDS011;6174;49.058;8.524;2023-11-19T20:03:51;5.60;;;2.03;;
12222;SDS011;6174;49.058;8.524;2023-11-19T20:06:18;4.10;;;2.03;;
12222;SDS011;6174;49.058;8.524;2023-11-19T20:08:46;6.40;;;3.07;;
12222;SDS011;6174;49.058;8.524;2023-11-19T20:11:14;7.23;;;3.33;;
12222;SDS011;6174;49.058;8.524;2023-11-19T20:13:41;5.27;;;2.50;;
12222;SDS011;6174;49.058;8.524;2023-11-19T20:16:08;5.93;;;2.63;;
12222;SDS011;6174;49.058;8.524;2023-11-19T20:18:37;9.50;;;2.93;;
12222;SDS011;6174;49.058;8.524;2023-11-19T20:21:04;6.00;;;2.70;;
12222;SDS011;6174;49.058;8.524;2023-11-19T20:23:34;5.33;;;3.13;;
12222;SDS011;6174;49.058;8.524;2023-11-19T20:26:01;7.67;;;3.93;;
12222;SDS011;6174;49.058;8.524;2023-11-19T20:28:27;12.73;;;8.57;;
12222;SDS011;6174;49.058;8.524;2023-11-19T20:30:54;9.33;;;4.97;;
12222;SDS011;6174;49.058;8.524;2023-11-19T20:33:21;10.90;;;6.90;;
12222;SDS011;6174;49.058;8.524;2023-11-19T20:35:49;7.13;;;4.97;;
12222;SDS011;6174;49.058;8.524;2023-11-19T20:38:16;9.20;;;4.70;;
12222;SDS011;6174;49.058;8.524;2023-11-19T20:40:43;9.37;;;4.33;;
12222;SDS011;6174;49.058;8.524;2023-11-19T20:43:10;20.80;;;12.13;;
12222;SDS011;6174;49.058;8.524;2023-11-19T20:45:37;8.40;;;4.73;;
12222;SDS011;6174;49.058;8.524;2023-11-19T20:48:04;12.33;;;6.23;;
12222;SDS011;6174;49.058;8.524;2023-11-19T20:50:31;13.57;;;7.97;;
12222;SDS011;6174;49.058;8.524;2023-11-19T20:53:00;8.63;;;3.77;;
12222;SDS011;6174;49.058;8.524;2023-11-19T20:55:27;7.17;;;2.80;;
12222;SDS011;6174;49.058;8.524;2023-11-19T20:57:54;6.20;;;2.60;;
12222;SDS011;6174;49.058;8.524;2023-11-19T21:00:22;5.33;;;2.27;;
12222;SDS011;6174;49.058;8.524;2023-11-19T21:02:49;7.20;;;2.87;;
12222;SDS011;6174;49.058;8.524;2023-11-19T21:05:19;7.07;;;2.80;;
12222;SDS011;6174;49.058;8.524;2023-11-19T21:07:46;8.43;;;2.87;;
12222;SDS011;6174;49.058;8.524;2023-11-19T21:10:15;8.67;;;2.90;;
12222;SDS011;6174;49.058;8.524;2023-11-19T21:12:45;5.77;;;2.33;;
12222;SDS011;6174;49.058;8.524;2023-11-19T21:15:15;7.60;;;3.23;;
12222;SDS011;6174;49.058;8.524;2023-11-19T21:17:42;5.90;;;2.30;;
12222;SDS011;6174;49.058;8.524;2023-11-19T21:20:09;6.83;;;2.30;;
12222;SDS011;6174;49.058;8.524;2023-11-19T21:22:36;4.37;;;2.37;;
12222;SDS011;6174;49.058;8.524;2023-11-19T21:25:03;7.17;;;2.23;;
12222;SDS011;6174;49.058;8.524;2023-11-19T21:27:32;6.57;;;2.30;;
12222;SDS011;6174;49.058;8.524;2023-11-19T21:29:59;5.33;;;2.00;;
12222;SDS011;6174;49.058;8.524;2023-11-19T21:32:29;6.60;;;2.50;;
12222;SDS011;6174;49.058;8.524;2023-11-19T21:34:57;7.00;;;2.30;;
12222;SDS011;6174;49.058;8.524;2023-11-19T21:37:25;9.53;;;2.40;;
12222;SDS011;6174;49.058;8.524;2023-11-19T21:39:52;5.97;;;2.43;;
12222;SDS011;6174;49.058;8.524;2023-11-19T21:42:19;10.27;;;3.07;;
12222;SDS011;6174;49.058;8.524;2023-11-19T21:44:47;6.07;;;2.23;;
12222;SDS011;6174;49.058;8.524;2023-11-19T21:47:14;7.17;;;2.77;;
12222;SDS011;6174;49.058;8.524;2023-11-19T21:49:41;6.90;;;2.77;;
12222;SDS011;6174;49.058;8.524;2023-11-19T21:52:07;4.50;;;2.20;;
12222;SDS011;6174;49.058;8.524;2023-11-19T21:54:35;7.10;;;2.73;;
12222;SDS011;6174;49.058;8.524;2023-11-19T21:57:02;6.00;;;2.23;;
12222;SDS011;6174;49.058;8.524;2023-11-19T21:59:29;7.67;;;2.60;;
12222;SDS011;6174;49.058;8.524;2023-11-19T22:01:58;6.77;;;2.30;;
12222;SDS011;6174;49.058;8.524;2023-11-19T22:04:25;5.27;;;2.43;;
12222;SDS011;6174;49.058;8.524;2023-11-19T22:06:53;6.37;;;2.03;;
12222;SDS011;6174;49.058;8.524;2023-11-19T22:09:20;7.10;;;2.60;;
12222;SDS011;6174;49.058;8.524;2023-11-19T22:11:47;7.73;;;2.60;;
12222;SDS011;6174;49.058;8.524;2023-11-19T22:14:13;7.53;;;2.60;;
12222;SDS011;6174;49.058;8.524;2023-11-19T22:16:40;8.13;;;2.40;;
12222;SDS011;6174;49.058;8.524;2023-11-19T22:19:09;6.07;;;2.27;;
12222;SDS011;6174;49.058;8.524;2023-11-19T22:21:36;6.40;;;2.37;;
12222;SDS011;6174;49.058;8.524;2023-11-19T22:24:03;6.60;;;2.40;;
12222;SDS011;6174;49.058;8.524;2023-11-19T22:26:33;8.70;;;3.23;;
12222;SDS011;6174;49.058;8.524;2023-11-19T22:29:00;8.03;;;2.53;;
12222;SDS011;6174;49.058;8.524;2023-11-19T22:31:30;7.93;;;2.77;;
12222;SDS011;6174;49.058;8.524;2023-11-19T22:33:58;10.90;;;2.80;;
12222;SDS011;6174;49.058;8.524;2023-11-19T22:36:29;9.07;;;2.80;;